sensor_id;sensor_type;location;lat;lon;timestamp;P1;durP1;ratioP1;P2;durP2;ratioP2
20391;SDS011;10355;53.688;10.078;2023-08-07T00:01:24;4.05;;;1.27;;
20391;SDS011;10355;53.688;10.078;2023-08-07T00:04:08;2.20;;;0.90;;
20391;SDS011;10355;53.688;10.078;2023-08-07T00:06:51;1.63;;;1.00;;
20391;SDS011;10355;53.688;10.078;2023-08-07T00:09:33;3.80;;;1.10;;
20391;SDS011;10355;53.688;10.078;2023-08-07T00:12:16;5.00;;;1.15;;
20391;SDS011;10355;53.688;10.078;2023-08-07T00:14:59;4.28;;;1.05;;
20391;SDS011;10355;53.688;10.078;2023-08-07T00:17:42;2.80;;;1.00;;
20391;SDS011;10355;53.688;10.078;2023-08-07T00:20:26;2.72;;;1.00;;
20391;SDS011;10355;53.688;10.078;2023-08-07T00:23:08;3.13;;;1.10;;
20391;SDS011;10355;53.688;10.078;2023-08-07T00:25:51;3.40;;;1.00;;
20391;SDS011;10355;53.688;10.078;2023-08-07T00:28:34;3.28;;;1.00;;
20391;SDS011;10355;53.688;10.078;2023-08-07T00:31:17;5.22;;;0.98;;
20391;SDS011;10355;53.688;10.078;2023-08-07T00:33:59;1.95;;;0.93;;
20391;SDS011;10355;53.688;10.078;2023-08-07T00:36:45;4.45;;;1.00;;
20391;SDS011;10355;53.688;10.078;2023-08-07T00:39:27;1.80;;;0.93;;
20391;SDS011;10355;53.688;10.078;2023-08-07T00:42:10;2.25;;;0.90;;
20391;SDS011;10355;53.688;10.078;2023-08-07T00:44:53;1.25;;;0.80;;
20391;SDS011;10355;53.688;10.078;2023-08-07T00:47:36;1.48;;;1.00;;
20391;SDS011;10355;53.688;10.078;2023-08-07T00:50:19;2.63;;;0.85;;
20391;SDS011;10355;53.688;10.078;2023-08-07T00:53:07;3.15;;;1.17;;
20391;SDS011;10355;53.688;10.078;2023-08-07T00:55:50;3.75;;;1.10;;
20391;SDS011;10355;53.688;10.078;2023-08-07T00:58:33;1.10;;;0.68;;
20391;SDS011;10355;53.688;10.078;2023-08-07T01:01:17;1.85;;;0.90;;
20391;SDS011;10355;53.688;10.078;2023-08-07T01:04:00;1.58;;;0.90;;
20391;SDS011;10355;53.688;10.078;2023-08-07T01:06:42;2.20;;;1.00;;
20391;SDS011;10355;53.688;10.078;2023-08-07T01:09:26;1.63;;;0.90;;
20391;SDS011;10355;53.688;10.078;2023-08-07T01:12:10;1.70;;;0.98;;
20391;SDS011;10355;53.688;10.078;2023-08-07T01:14:58;2.20;;;0.93;;
20391;SDS011;10355;53.688;10.078;2023-08-07T01:17:41;3.53;;;0.85;;
20391;SDS011;10355;53.688;10.078;2023-08-07T01:20:24;1.00;;;0.85;;
20391;SDS011;10355;53.688;10.078;2023-08-07T01:23:09;2.00;;;0.95;;
20391;SDS011;10355;53.688;10.078;2023-08-07T01:25:51;1.95;;;0.95;;
20391;SDS011;10355;53.688;10.078;2023-08-07T01:28:36;1.67;;;0.90;;
20391;SDS011;10355;53.688;10.078;2023-08-07T01:31:19;1.83;;;1.13;;
20391;SDS011;10355;53.688;10.078;2023-08-07T01:34:04;2.78;;;1.00;;
20391;SDS011;10355;53.688;10.078;2023-08-07T01:36:47;2.42;;;0.90;;
20391;SDS011;10355;53.688;10.078;2023-08-07T01:39:32;4.15;;;0.85;;
20391;SDS011;10355;53.688;10.078;2023-08-07T01:42:15;1.40;;;0.75;;
20391;SDS011;10355;53.688;10.078;2023-08-07T01:44:58;4.18;;;0.88;;
20391;SDS011;10355;53.688;10.078;2023-08-07T01:47:41;2.80;;;0.90;;
20391;SDS011;10355;53.688;10.078;2023-08-07T01:50:23;2.47;;;0.70;;
20391;SDS011;10355;53.688;10.078;2023-08-07T01:53:06;1.33;;;1.00;;
20391;SDS011;10355;53.688;10.078;2023-08-07T01:55:50;2.03;;;0.90;;
20391;SDS011;10355;53.688;10.078;2023-08-07T01:58:33;3.33;;;1.00;;
20391;SDS011;10355;53.688;10.078;2023-08-07T02:01:16;2.45;;;1.02;;
20391;SDS011;10355;53.688;10.078;2023-08-07T02:03:59;2.30;;;1.10;;
20391;SDS011;10355;53.688;10.078;2023-08-07T02:06:41;1.70;;;0.80;;
20391;SDS011;10355;53.688;10.078;2023-08-07T02:09:24;2.28;;;0.60;;
20391;SDS011;10355;53.688;10.078;2023-08-07T02:12:08;3.65;;;0.88;;
20391;SDS011;10355;53.688;10.078;2023-08-07T02:14:51;1.15;;;0.68;;
20391;SDS011;10355;53.688;10.078;2023-08-07T02:17:34;1.17;;;0.70;;
20391;SDS011;10355;53.688;10.078;2023-08-07T02:20:19;2.03;;;0.70;;
20391;SDS011;10355;53.688;10.078;2023-08-07T02:23:01;4.53;;;1.00;;
20391;SDS011;10355;53.688;10.078;2023-08-07T02:25:44;2.22;;;0.93;;
20391;SDS011;10355;53.688;10.078;2023-08-07T02:28:29;1.67;;;0.80;;
20391;SDS011;10355;53.688;10.078;2023-08-07T02:31:14;3.00;;;0.73;;
20391;SDS011;10355;53.688;10.078;2023-08-07T02:33:56;4.03;;;0.80;;
20391;SDS011;10355;53.688;10.078;2023-08-07T02:36:39;1.10;;;0.80;;
20391;SDS011;10355;53.688;10.078;2023-08-07T02:39:22;3.83;;;0.70;;
20391;SDS011;10355;53.688;10.078;2023-08-07T02:42:04;1.27;;;0.80;;
20391;SDS011;10355;53.688;10.078;2023-08-07T02:44:50;1.30;;;0.70;;
20391;SDS011;10355;53.688;10.078;2023-08-07T02:47:33;1.75;;;0.77;;
20391;SDS011;10355;53.688;10.078;2023-08-07T02:50:15;1.17;;;0.60;;
20391;SDS011;10355;53.688;10.078;2023-08-07T02:52:58;3.00;;;0.95;;
20391;SDS011;10355;53.688;10.078;2023-08-07T02:55:42;2.53;;;0.85;;
20391;SDS011;10355;53.688;10.078;2023-08-07T02:58:25;1.60;;;0.85;;
20391;SDS011;10355;53.688;10.078;2023-08-07T03:01:09;9.45;;;1.10;;
20391;SDS011;10355;53.688;10.078;2023-08-07T03:03:53;2.00;;;0.88;;
20391;SDS011;10355;53.688;10.078;2023-08-07T03:06:35;1.27;;;0.80;;
20391;SDS011;10355;53.688;10.078;2023-08-07T03:09:18;1.83;;;0.70;;
20391;SDS011;10355;53.688;10.078;2023-08-07T03:12:00;1.38;;;0.70;;
20391;SDS011;10355;53.688;10.078;2023-08-07T03:14:45;1.85;;;0.70;;
20391;SDS011;10355;53.688;10.078;2023-08-07T03:17:29;1.08;;;0.70;;
20391;SDS011;10355;53.688;10.078;2023-08-07T03:20:12;2.33;;;0.80;;
20391;SDS011;10355;53.688;10.078;2023-08-07T03:22:55;2.28;;;0.80;;
20391;SDS011;10355;53.688;10.078;2023-08-07T03:25:37;1.90;;;0.98;;
20391;SDS011;10355;53.688;10.078;2023-08-07T03:28:20;3.58;;;1.10;;
20391;SDS011;10355;53.688;10.078;2023-08-07T03:31:03;1.95;;;0.70;;
20391;SDS011;10355;53.688;10.078;2023-08-07T03:33:50;1.77;;;0.65;;
20391;SDS011;10355;53.688;10.078;2023-08-07T03:36:33;1.83;;;0.70;;
20391;SDS011;10355;53.688;10.078;2023-08-07T03:39:15;1.40;;;0.63;;
20391;SDS011;10355;53.688;10.078;2023-08-07T03:41:58;2.53;;;0.80;;
20391;SDS011;10355;53.688;10.078;2023-08-07T03:44:41;2.78;;;0.93;;
20391;SDS011;10355;53.688;10.078;2023-08-07T03:47:23;2.30;;;0.82;;
20391;SDS011;10355;53.688;10.078;2023-08-07T03:50:08;1.48;;;0.88;;
20391;SDS011;10355;53.688;10.078;2023-08-07T03:52:50;2.08;;;1.00;;
20391;SDS011;10355;53.688;10.078;2023-08-07T03:55:34;4.25;;;1.00;;
20391;SDS011;10355;53.688;10.078;2023-08-07T03:58:16;3.97;;;1.02;;
20391;SDS011;10355;53.688;10.078;2023-08-07T04:00:59;1.83;;;0.70;;
20391;SDS011;10355;53.688;10.078;2023-08-07T04:03:42;2.97;;;0.88;;
20391;SDS011;10355;53.688;10.078;2023-08-07T04:06:26;1.63;;;0.90;;
20391;SDS011;10355;53.688;10.078;2023-08-07T04:09:10;1.52;;;0.70;;
20391;SDS011;10355;53.688;10.078;2023-08-07T04:11:52;3.05;;;1.00;;
20391;SDS011;10355;53.688;10.078;2023-08-07T04:14:35;2.20;;;0.90;;
20391;SDS011;10355;53.688;10.078;2023-08-07T04:17:18;2.95;;;0.80;;
20391;SDS011;10355;53.688;10.078;2023-08-07T04:20:00;2.08;;;1.00;;
20391;SDS011;10355;53.688;10.078;2023-08-07T04:22:46;3.35;;;0.80;;
20391;SDS011;10355;53.688;10.078;2023-08-07T04:25:28;3.03;;;0.98;;
20391;SDS011;10355;53.688;10.078;2023-08-07T04:28:11;1.88;;;0.80;;
20391;SDS011;10355;53.688;10.078;2023-08-07T04:30:54;5.28;;;1.00;;
20391;SDS011;10355;53.688;10.078;2023-08-07T04:33:37;3.85;;;1.05;;
20391;SDS011;10355;53.688;10.078;2023-08-07T04:36:19;3.45;;;0.95;;
20391;SDS011;10355;53.688;10.078;2023-08-07T04:39:04;3.30;;;0.88;;
20391;SDS011;10355;53.688;10.078;2023-08-07T04:41:47;2.30;;;0.82;;
20391;SDS011;10355;53.688;10.078;2023-08-07T04:44:31;3.05;;;0.73;;
20391;SDS011;10355;53.688;10.078;2023-08-07T04:47:13;1.70;;;0.95;;
20391;SDS011;10355;53.688;10.078;2023-08-07T04:49:56;3.33;;;0.98;;
20391;SDS011;10355;53.688;10.078;2023-08-07T04:52:39;3.55;;;1.17;;
20391;SDS011;10355;53.688;10.078;2023-08-07T04:55:23;2.47;;;0.98;;
20391;SDS011;10355;53.688;10.078;2023-08-07T04:58:06;2.15;;;0.80;;
20391;SDS011;10355;53.688;10.078;2023-08-07T05:00:53;2.38;;;0.98;;
20391;SDS011;10355;53.688;10.078;2023-08-07T05:03:36;2.53;;;0.98;;
20391;SDS011;10355;53.688;10.078;2023-08-07T05:06:19;2.33;;;0.95;;
20391;SDS011;10355;53.688;10.078;2023-08-07T05:09:02;3.30;;;0.75;;
20391;SDS011;10355;53.688;10.078;2023-08-07T05:11:47;3.85;;;1.10;;
20391;SDS011;10355;53.688;10.078;2023-08-07T05:14:29;3.97;;;1.05;;
20391;SDS011;10355;53.688;10.078;2023-08-07T05:17:12;2.50;;;1.00;;
20391;SDS011;10355;53.688;10.078;2023-08-07T05:19:55;3.80;;;0.98;;
20391;SDS011;10355;53.688;10.078;2023-08-07T05:22:37;3.92;;;1.20;;
20391;SDS011;10355;53.688;10.078;2023-08-07T05:25:20;4.25;;;1.02;;
20391;SDS011;10355;53.688;10.078;2023-08-07T05:28:04;2.00;;;0.63;;
20391;SDS011;10355;53.688;10.078;2023-08-07T05:30:47;3.08;;;0.98;;
20391;SDS011;10355;53.688;10.078;2023-08-07T05:33:30;3.95;;;1.00;;
20391;SDS011;10355;53.688;10.078;2023-08-07T05:36:13;3.47;;;0.95;;
20391;SDS011;10355;53.688;10.078;2023-08-07T05:38:55;3.67;;;1.02;;
20391;SDS011;10355;53.688;10.078;2023-08-07T05:41:38;2.53;;;1.00;;
20391;SDS011;10355;53.688;10.078;2023-08-07T05:44:22;3.88;;;0.90;;
20391;SDS011;10355;53.688;10.078;2023-08-07T05:47:05;3.22;;;0.98;;
20391;SDS011;10355;53.688;10.078;2023-08-07T05:49:48;4.68;;;1.17;;
20391;SDS011;10355;53.688;10.078;2023-08-07T05:52:31;4.15;;;1.05;;
20391;SDS011;10355;53.688;10.078;2023-08-07T05:55:13;5.35;;;1.00;;
20391;SDS011;10355;53.688;10.078;2023-08-07T05:57:56;2.67;;;1.10;;
20391;SDS011;10355;53.688;10.078;2023-08-07T06:00:40;3.00;;;1.00;;
20391;SDS011;10355;53.688;10.078;2023-08-07T06:03:23;8.18;;;1.25;;
20391;SDS011;10355;53.688;10.078;2023-08-07T06:06:06;4.30;;;0.85;;
20391;SDS011;10355;53.688;10.078;2023-08-07T06:08:49;4.20;;;1.27;;
20391;SDS011;10355;53.688;10.078;2023-08-07T06:11:32;4.93;;;1.20;;
20391;SDS011;10355;53.688;10.078;2023-08-07T06:14:15;6.47;;;1.42;;
20391;SDS011;10355;53.688;10.078;2023-08-07T06:16:59;3.78;;;1.08;;
20391;SDS011;10355;53.688;10.078;2023-08-07T06:19:43;5.50;;;1.55;;
20391;SDS011;10355;53.688;10.078;2023-08-07T06:22:25;5.55;;;1.40;;
20391;SDS011;10355;53.688;10.078;2023-08-07T06:25:08;2.78;;;1.00;;
20391;SDS011;10355;53.688;10.078;2023-08-07T06:27:51;7.45;;;1.20;;
20391;SDS011;10355;53.688;10.078;2023-08-07T06:30:34;6.10;;;1.17;;
20391;SDS011;10355;53.688;10.078;2023-08-07T06:33:18;4.97;;;1.33;;
20391;SDS011;10355;53.688;10.078;2023-08-07T06:36:01;4.25;;;1.42;;
20391;SDS011;10355;53.688;10.078;2023-08-07T06:38:44;7.38;;;1.40;;
20391;SDS011;10355;53.688;10.078;2023-08-07T06:41:26;5.35;;;1.60;;
20391;SDS011;10355;53.688;10.078;2023-08-07T06:44:09;5.63;;;1.30;;
20391;SDS011;10355;53.688;10.078;2023-08-07T06:46:52;6.15;;;1.67;;
20391;SDS011;10355;53.688;10.078;2023-08-07T06:49:36;4.60;;;1.52;;
20391;SDS011;10355;53.688;10.078;2023-08-07T06:52:18;10.52;;;1.90;;
20391;SDS011;10355;53.688;10.078;2023-08-07T06:55:01;8.10;;;1.80;;
20391;SDS011;10355;53.688;10.078;2023-08-07T06:57:44;8.77;;;1.73;;
20391;SDS011;10355;53.688;10.078;2023-08-07T07:00:27;4.78;;;1.58;;
20391;SDS011;10355;53.688;10.078;2023-08-07T07:03:09;7.05;;;1.23;;
20391;SDS011;10355;53.688;10.078;2023-08-07T07:05:53;8.30;;;1.65;;
20391;SDS011;10355;53.688;10.078;2023-08-07T07:08:37;8.27;;;1.63;;
20391;SDS011;10355;53.688;10.078;2023-08-07T07:11:20;10.95;;;1.70;;
20391;SDS011;10355;53.688;10.078;2023-08-07T07:14:04;6.72;;;1.50;;
20391;SDS011;10355;53.688;10.078;2023-08-07T07:16:46;11.23;;;1.98;;
20391;SDS011;10355;53.688;10.078;2023-08-07T07:19:29;10.35;;;1.70;;
20391;SDS011;10355;53.688;10.078;2023-08-07T07:22:13;7.80;;;1.65;;
20391;SDS011;10355;53.688;10.078;2023-08-07T07:24:56;7.68;;;1.55;;
20391;SDS011;10355;53.688;10.078;2023-08-07T07:27:39;10.90;;;1.70;;
20391;SDS011;10355;53.688;10.078;2023-08-07T07:30:22;4.35;;;1.70;;
20391;SDS011;10355;53.688;10.078;2023-08-07T07:33:05;7.35;;;1.73;;
20391;SDS011;10355;53.688;10.078;2023-08-07T07:35:48;8.57;;;1.73;;
20391;SDS011;10355;53.688;10.078;2023-08-07T07:38:32;6.32;;;1.58;;
20391;SDS011;10355;53.688;10.078;2023-08-07T07:41:15;10.50;;;1.90;;
20391;SDS011;10355;53.688;10.078;2023-08-07T07:43:59;7.53;;;1.73;;
20391;SDS011;10355;53.688;10.078;2023-08-07T07:46:43;5.65;;;1.85;;
20391;SDS011;10355;53.688;10.078;2023-08-07T07:49:26;11.02;;;1.67;;
20391;SDS011;10355;53.688;10.078;2023-08-07T07:52:09;8.95;;;1.58;;
20391;SDS011;10355;53.688;10.078;2023-08-07T07:54:53;5.47;;;1.50;;
20391;SDS011;10355;53.688;10.078;2023-08-07T07:57:36;6.18;;;1.63;;
20391;SDS011;10355;53.688;10.078;2023-08-07T08:00:19;8.13;;;1.70;;
20391;SDS011;10355;53.688;10.078;2023-08-07T08:03:04;7.53;;;1.83;;
20391;SDS011;10355;53.688;10.078;2023-08-07T08:05:48;5.90;;;1.65;;
20391;SDS011;10355;53.688;10.078;2023-08-07T08:08:31;10.93;;;1.80;;
20391;SDS011;10355;53.688;10.078;2023-08-07T08:11:15;7.90;;;1.85;;
20391;SDS011;10355;53.688;10.078;2023-08-07T08:13:58;7.10;;;1.55;;
20391;SDS011;10355;53.688;10.078;2023-08-07T08:16:41;6.63;;;1.60;;
20391;SDS011;10355;53.688;10.078;2023-08-07T08:19:23;7.03;;;1.58;;
20391;SDS011;10355;53.688;10.078;2023-08-07T08:22:13;7.28;;;1.60;;
20391;SDS011;10355;53.688;10.078;2023-08-07T08:24:56;6.88;;;1.70;;
20391;SDS011;10355;53.688;10.078;2023-08-07T08:27:40;6.95;;;1.70;;
20391;SDS011;10355;53.688;10.078;2023-08-07T08:30:23;6.55;;;1.83;;
20391;SDS011;10355;53.688;10.078;2023-08-07T08:33:05;8.43;;;1.88;;
20391;SDS011;10355;53.688;10.078;2023-08-07T08:35:50;8.05;;;1.80;;
20391;SDS011;10355;53.688;10.078;2023-08-07T08:38:33;6.47;;;1.50;;
20391;SDS011;10355;53.688;10.078;2023-08-07T08:41:16;6.10;;;1.80;;
20391;SDS011;10355;53.688;10.078;2023-08-07T08:44:01;8.40;;;1.73;;
20391;SDS011;10355;53.688;10.078;2023-08-07T08:46:44;9.30;;;1.85;;
20391;SDS011;10355;53.688;10.078;2023-08-07T08:49:28;9.27;;;1.80;;
20391;SDS011;10355;53.688;10.078;2023-08-07T08:52:12;5.50;;;1.67;;
20391;SDS011;10355;53.688;10.078;2023-08-07T08:54:55;6.85;;;1.60;;
20391;SDS011;10355;53.688;10.078;2023-08-07T08:57:39;6.75;;;1.75;;
20391;SDS011;10355;53.688;10.078;2023-08-07T09:00:23;8.98;;;1.70;;
20391;SDS011;10355;53.688;10.078;2023-08-07T09:03:07;8.45;;;1.60;;
20391;SDS011;10355;53.688;10.078;2023-08-07T09:05:50;5.32;;;1.60;;
20391;SDS011;10355;53.688;10.078;2023-08-07T09:08:35;8.90;;;2.10;;
20391;SDS011;10355;53.688;10.078;2023-08-07T09:11:18;8.00;;;1.85;;
20391;SDS011;10355;53.688;10.078;2023-08-07T09:14:02;10.48;;;1.75;;
20391;SDS011;10355;53.688;10.078;2023-08-07T09:16:47;8.25;;;1.90;;
20391;SDS011;10355;53.688;10.078;2023-08-07T09:19:30;4.15;;;1.30;;
20391;SDS011;10355;53.688;10.078;2023-08-07T09:22:13;6.53;;;1.70;;
20391;SDS011;10355;53.688;10.078;2023-08-07T09:24:56;8.25;;;1.63;;
20391;SDS011;10355;53.688;10.078;2023-08-07T09:27:41;7.35;;;1.73;;
20391;SDS011;10355;53.688;10.078;2023-08-07T09:30:26;8.93;;;1.80;;
20391;SDS011;10355;53.688;10.078;2023-08-07T09:33:10;12.23;;;1.83;;
20391;SDS011;10355;53.688;10.078;2023-08-07T09:35:53;6.50;;;1.55;;
20391;SDS011;10355;53.688;10.078;2023-08-07T09:38:39;9.00;;;1.73;;
20391;SDS011;10355;53.688;10.078;2023-08-07T09:41:22;5.72;;;1.48;;
20391;SDS011;10355;53.688;10.078;2023-08-07T09:44:05;9.88;;;1.45;;
20391;SDS011;10355;53.688;10.078;2023-08-07T09:46:49;5.70;;;1.55;;
20391;SDS011;10355;53.688;10.078;2023-08-07T09:49:34;8.68;;;1.65;;
20391;SDS011;10355;53.688;10.078;2023-08-07T09:52:16;8.15;;;2.10;;
20391;SDS011;10355;53.688;10.078;2023-08-07T09:54:59;10.85;;;1.80;;
20391;SDS011;10355;53.688;10.078;2023-08-07T09:57:42;8.18;;;1.80;;
20391;SDS011;10355;53.688;10.078;2023-08-07T10:00:25;6.72;;;1.70;;
20391;SDS011;10355;53.688;10.078;2023-08-07T10:03:09;11.00;;;1.75;;
20391;SDS011;10355;53.688;10.078;2023-08-07T10:05:53;6.70;;;1.92;;
20391;SDS011;10355;53.688;10.078;2023-08-07T10:08:36;6.53;;;1.77;;
20391;SDS011;10355;53.688;10.078;2023-08-07T10:11:19;6.88;;;1.98;;
20391;SDS011;10355;53.688;10.078;2023-08-07T10:14:03;8.68;;;1.80;;
20391;SDS011;10355;53.688;10.078;2023-08-07T10:16:46;5.00;;;1.40;;
20391;SDS011;10355;53.688;10.078;2023-08-07T10:19:29;4.13;;;1.70;;
20391;SDS011;10355;53.688;10.078;2023-08-07T10:22:14;9.38;;;1.70;;
20391;SDS011;10355;53.688;10.078;2023-08-07T10:24:59;4.47;;;1.58;;
20391;SDS011;10355;53.688;10.078;2023-08-07T10:27:44;6.55;;;1.60;;
20391;SDS011;10355;53.688;10.078;2023-08-07T10:30:28;8.27;;;1.80;;
20391;SDS011;10355;53.688;10.078;2023-08-07T10:33:12;7.72;;;1.75;;
20391;SDS011;10355;53.688;10.078;2023-08-07T10:35:57;9.02;;;1.80;;
20391;SDS011;10355;53.688;10.078;2023-08-07T10:38:42;6.70;;;1.60;;
20391;SDS011;10355;53.688;10.078;2023-08-07T10:41:25;5.40;;;1.52;;
20391;SDS011;10355;53.688;10.078;2023-08-07T10:44:16;7.85;;;1.48;;
20391;SDS011;10355;53.688;10.078;2023-08-07T10:47:00;7.55;;;1.75;;
20391;SDS011;10355;53.688;10.078;2023-08-07T10:49:43;8.43;;;1.48;;
20391;SDS011;10355;53.688;10.078;2023-08-07T10:52:26;6.93;;;1.63;;
20391;SDS011;10355;53.688;10.078;2023-08-07T10:55:14;9.63;;;1.40;;
20391;SDS011;10355;53.688;10.078;2023-08-07T10:57:57;5.60;;;1.50;;
20391;SDS011;10355;53.688;10.078;2023-08-07T11:00:40;9.65;;;1.80;;
20391;SDS011;10355;53.688;10.078;2023-08-07T11:03:26;6.28;;;1.70;;
20391;SDS011;10355;53.688;10.078;2023-08-07T11:06:09;5.65;;;1.50;;
20391;SDS011;10355;53.688;10.078;2023-08-07T11:08:52;4.80;;;1.35;;
20391;SDS011;10355;53.688;10.078;2023-08-07T11:11:37;4.72;;;1.40;;
20391;SDS011;10355;53.688;10.078;2023-08-07T11:14:22;4.63;;;1.23;;
20391;SDS011;10355;53.688;10.078;2023-08-07T11:17:05;6.68;;;1.73;;
20391;SDS011;10355;53.688;10.078;2023-08-07T11:19:48;6.45;;;1.58;;
20391;SDS011;10355;53.688;10.078;2023-08-07T11:22:30;3.53;;;1.20;;
20391;SDS011;10355;53.688;10.078;2023-08-07T11:25:13;5.55;;;1.27;;
20391;SDS011;10355;53.688;10.078;2023-08-07T11:27:58;6.45;;;1.55;;
20391;SDS011;10355;53.688;10.078;2023-08-07T11:30:41;4.97;;;1.30;;
20391;SDS011;10355;53.688;10.078;2023-08-07T11:33:24;10.48;;;1.10;;
20391;SDS011;10355;53.688;10.078;2023-08-07T11:36:09;4.55;;;1.17;;
20391;SDS011;10355;53.688;10.078;2023-08-07T11:38:52;3.72;;;1.33;;
20391;SDS011;10355;53.688;10.078;2023-08-07T11:41:35;7.07;;;1.20;;
20391;SDS011;10355;53.688;10.078;2023-08-07T11:44:19;4.85;;;1.25;;
20391;SDS011;10355;53.688;10.078;2023-08-07T11:47:03;3.83;;;1.13;;
20391;SDS011;10355;53.688;10.078;2023-08-07T11:49:46;7.55;;;1.00;;
20391;SDS011;10355;53.688;10.078;2023-08-07T11:52:29;7.25;;;1.20;;
20391;SDS011;10355;53.688;10.078;2023-08-07T11:55:13;6.13;;;1.23;;
20391;SDS011;10355;53.688;10.078;2023-08-07T11:57:57;4.07;;;1.00;;
20391;SDS011;10355;53.688;10.078;2023-08-07T12:00:43;3.00;;;0.90;;
20391;SDS011;10355;53.688;10.078;2023-08-07T12:03:27;5.82;;;0.90;;
20391;SDS011;10355;53.688;10.078;2023-08-07T12:06:10;5.63;;;1.17;;
20391;SDS011;10355;53.688;10.078;2023-08-07T12:08:53;6.90;;;1.15;;
20391;SDS011;10355;53.688;10.078;2023-08-07T12:11:37;4.28;;;1.10;;
20391;SDS011;10355;53.688;10.078;2023-08-07T12:14:20;3.70;;;1.15;;
20391;SDS011;10355;53.688;10.078;2023-08-07T12:17:05;4.15;;;1.10;;
20391;SDS011;10355;53.688;10.078;2023-08-07T12:19:49;7.60;;;1.40;;
20391;SDS011;10355;53.688;10.078;2023-08-07T12:22:33;5.72;;;1.20;;
20391;SDS011;10355;53.688;10.078;2023-08-07T12:25:16;5.15;;;1.08;;
20391;SDS011;10355;53.688;10.078;2023-08-07T12:27:59;8.20;;;1.17;;
20391;SDS011;10355;53.688;10.078;2023-08-07T12:30:43;7.05;;;0.95;;
20391;SDS011;10355;53.688;10.078;2023-08-07T12:33:29;4.93;;;1.00;;
20391;SDS011;10355;53.688;10.078;2023-08-07T12:36:12;5.03;;;1.30;;
20391;SDS011;10355;53.688;10.078;2023-08-07T12:38:59;8.43;;;1.50;;
20391;SDS011;10355;53.688;10.078;2023-08-07T12:41:42;8.48;;;1.42;;
20391;SDS011;10355;53.688;10.078;2023-08-07T12:44:45;3.97;;;1.00;;
20391;SDS011;10355;53.688;10.078;2023-08-07T12:47:28;4.10;;;1.23;;
20391;SDS011;10355;53.688;10.078;2023-08-07T12:50:12;3.85;;;1.08;;
20391;SDS011;10355;53.688;10.078;2023-08-07T12:52:55;6.75;;;1.10;;
20391;SDS011;10355;53.688;10.078;2023-08-07T12:55:38;4.45;;;1.10;;
20391;SDS011;10355;53.688;10.078;2023-08-07T12:58:21;3.78;;;1.20;;
20391;SDS011;10355;53.688;10.078;2023-08-07T13:01:07;4.68;;;1.15;;
20391;SDS011;10355;53.688;10.078;2023-08-07T13:03:49;3.08;;;1.27;;
20391;SDS011;10355;53.688;10.078;2023-08-07T13:06:33;6.03;;;1.20;;
20391;SDS011;10355;53.688;10.078;2023-08-07T13:09:16;3.88;;;1.10;;
20391;SDS011;10355;53.688;10.078;2023-08-07T13:12:00;4.35;;;1.20;;
20391;SDS011;10355;53.688;10.078;2023-08-07T13:14:42;4.88;;;1.13;;
20391;SDS011;10355;53.688;10.078;2023-08-07T13:17:25;5.88;;;1.38;;
20391;SDS011;10355;53.688;10.078;2023-08-07T13:20:09;7.60;;;1.50;;
20391;SDS011;10355;53.688;10.078;2023-08-07T13:22:56;5.53;;;1.48;;
20391;SDS011;10355;53.688;10.078;2023-08-07T13:25:38;7.38;;;1.60;;
20391;SDS011;10355;53.688;10.078;2023-08-07T13:28:22;5.28;;;1.52;;
20391;SDS011;10355;53.688;10.078;2023-08-07T13:31:05;6.25;;;1.65;;
20391;SDS011;10355;53.688;10.078;2023-08-07T13:33:48;5.43;;;1.75;;
20391;SDS011;10355;53.688;10.078;2023-08-07T13:36:31;7.13;;;1.67;;
20391;SDS011;10355;53.688;10.078;2023-08-07T13:39:15;7.55;;;1.83;;
20391;SDS011;10355;53.688;10.078;2023-08-07T13:41:58;6.15;;;1.48;;
20391;SDS011;10355;53.688;10.078;2023-08-07T13:44:41;6.28;;;1.73;;
20391;SDS011;10355;53.688;10.078;2023-08-07T13:47:24;6.70;;;1.70;;
20391;SDS011;10355;53.688;10.078;2023-08-07T13:50:07;6.75;;;1.52;;
20391;SDS011;10355;53.688;10.078;2023-08-07T13:52:54;5.30;;;1.73;;
20391;SDS011;10355;53.688;10.078;2023-08-07T13:55:55;9.98;;;1.92;;
20391;SDS011;10355;53.688;10.078;2023-08-07T13:58:38;6.78;;;1.63;;
20391;SDS011;10355;53.688;10.078;2023-08-07T14:01:20;6.47;;;1.60;;
20391;SDS011;10355;53.688;10.078;2023-08-07T14:04:03;6.85;;;1.80;;
20391;SDS011;10355;53.688;10.078;2023-08-07T14:06:46;8.45;;;1.60;;
20391;SDS011;10355;53.688;10.078;2023-08-07T14:09:29;8.88;;;1.70;;
20391;SDS011;10355;53.688;10.078;2023-08-07T14:12:13;5.68;;;1.67;;
20391;SDS011;10355;53.688;10.078;2023-08-07T14:14:56;6.72;;;1.38;;
20391;SDS011;10355;53.688;10.078;2023-08-07T14:17:39;6.13;;;1.40;;
20391;SDS011;10355;53.688;10.078;2023-08-07T14:20:22;7.68;;;1.70;;
20391;SDS011;10355;53.688;10.078;2023-08-07T14:23:05;6.72;;;1.50;;
20391;SDS011;10355;53.688;10.078;2023-08-07T14:26:02;7.43;;;1.45;;
20391;SDS011;10355;53.688;10.078;2023-08-07T14:28:46;4.07;;;1.35;;
20391;SDS011;10355;53.688;10.078;2023-08-07T14:31:28;4.28;;;1.60;;
20391;SDS011;10355;53.688;10.078;2023-08-07T14:34:11;3.45;;;1.02;;
20391;SDS011;10355;53.688;10.078;2023-08-07T14:36:54;6.65;;;1.30;;
20391;SDS011;10355;53.688;10.078;2023-08-07T14:39:37;6.47;;;1.48;;
20391;SDS011;10355;53.688;10.078;2023-08-07T14:42:20;6.03;;;1.42;;
20391;SDS011;10355;53.688;10.078;2023-08-07T14:45:05;5.88;;;1.85;;
20391;SDS011;10355;53.688;10.078;2023-08-07T14:47:48;5.82;;;1.30;;
20391;SDS011;10355;53.688;10.078;2023-08-07T14:50:32;7.45;;;1.75;;
20391;SDS011;10355;53.688;10.078;2023-08-07T14:53:15;4.85;;;1.58;;
20391;SDS011;10355;53.688;10.078;2023-08-07T14:55:58;8.15;;;1.92;;
20391;SDS011;10355;53.688;10.078;2023-08-07T14:58:40;5.05;;;1.30;;
20391;SDS011;10355;53.688;10.078;2023-08-07T15:01:24;6.10;;;1.58;;
20391;SDS011;10355;53.688;10.078;2023-08-07T15:04:07;5.63;;;1.67;;
20391;SDS011;10355;53.688;10.078;2023-08-07T15:06:51;7.50;;;1.50;;
20391;SDS011;10355;53.688;10.078;2023-08-07T15:09:34;6.57;;;1.77;;
20391;SDS011;10355;53.688;10.078;2023-08-07T15:12:17;7.50;;;1.80;;
20391;SDS011;10355;53.688;10.078;2023-08-07T15:14:59;4.53;;;1.58;;
20391;SDS011;10355;53.688;10.078;2023-08-07T15:17:43;5.93;;;1.95;;
20391;SDS011;10355;53.688;10.078;2023-08-07T15:20:26;5.05;;;1.45;;
20391;SDS011;10355;53.688;10.078;2023-08-07T15:23:09;5.90;;;1.50;;
20391;SDS011;10355;53.688;10.078;2023-08-07T15:25:52;5.90;;;1.70;;
20391;SDS011;10355;53.688;10.078;2023-08-07T15:28:35;6.95;;;1.90;;
20391;SDS011;10355;53.688;10.078;2023-08-07T15:31:17;7.50;;;2.13;;
20391;SDS011;10355;53.688;10.078;2023-08-07T15:34:01;6.57;;;1.83;;
20391;SDS011;10355;53.688;10.078;2023-08-07T15:36:44;4.22;;;1.63;;
20391;SDS011;10355;53.688;10.078;2023-08-07T15:39:27;4.93;;;1.50;;
20391;SDS011;10355;53.688;10.078;2023-08-07T15:42:10;4.60;;;1.67;;
20391;SDS011;10355;53.688;10.078;2023-08-07T15:44:52;4.55;;;1.60;;
20391;SDS011;10355;53.688;10.078;2023-08-07T15:47:35;4.85;;;1.80;;
20391;SDS011;10355;53.688;10.078;2023-08-07T15:50:19;7.32;;;1.73;;
20391;SDS011;10355;53.688;10.078;2023-08-07T15:53:03;6.28;;;1.58;;
20391;SDS011;10355;53.688;10.078;2023-08-07T15:55:46;6.38;;;1.50;;
20391;SDS011;10355;53.688;10.078;2023-08-07T15:58:28;6.28;;;2.00;;
20391;SDS011;10355;53.688;10.078;2023-08-07T16:01:11;5.97;;;1.75;;
20391;SDS011;10355;53.688;10.078;2023-08-07T16:03:54;5.32;;;1.50;;
20391;SDS011;10355;53.688;10.078;2023-08-07T16:06:41;7.57;;;1.80;;
20391;SDS011;10355;53.688;10.078;2023-08-07T16:09:24;4.80;;;1.50;;